createdAt,value
2018-07-27T00:00:30.259Z,59.34
2018-07-27T00:02:57.512Z,59.52
2018-07-27T00:05:24.664Z,60.10
2018-07-27T00:07:51.837Z,60.25
2018-07-27T00:10:19.037Z,59.29
2018-07-27T00:12:46.224Z,60.45
2018-07-27T00:15:13.781Z,61.25
2018-07-27T00:17:41.265Z,64.21
2018-07-27T00:20:08.497Z,63.51
2018-07-27T00:22:35.913Z,63.42
2018-07-27T00:25:04.472Z,62.55
2018-07-27T00:27:31.651Z,61.60
2018-07-27T00:29:58.754Z,62.82
2018-07-27T00:32:26.015Z,62.44
2018-07-27T00:34:53.191Z,61.80
2018-07-27T00:37:20.496Z,62.44
2018-07-27T00:39:47.799Z,61.79
2018-07-27T00:42:14.956Z,62.51
2018-07-27T00:44:42.099Z,63.56
2018-07-27T00:47:09.263Z,64.63
2018-07-27T00:49:36.397Z,65.48
2018-07-27T00:52:03.520Z,65.50
2018-07-27T00:54:30.671Z,64.96
2018-07-27T00:56:57.839Z,64.38
2018-07-27T00:59:25.237Z,63.27
2018-07-27T01:01:52.388Z,62.14
2018-07-27T01:04:19.544Z,64.72
2018-07-27T01:06:53.513Z,66.86
2018-07-27T01:09:20.640Z,67.09
2018-07-27T01:11:47.821Z,67.83
2018-07-27T01:14:14.987Z,66.23
2018-07-27T01:16:42.160Z,66.72
2018-07-27T01:19:09.233Z,65.49
2018-07-27T01:21:36.389Z,65.23
2018-07-27T01:24:03.556Z,65.19
2018-07-27T01:26:30.708Z,65.53
2018-07-27T01:28:57.860Z,66.35
2018-07-27T01:31:25.003Z,67.11
2018-07-27T01:33:52.472Z,66.01
2018-07-27T01:36:19.635Z,66.13
2018-07-27T01:38:46.775Z,66.41
2018-07-27T01:41:13.937Z,69.21
2018-07-27T01:43:41.115Z,69.19
2018-07-27T01:46:08.280Z,69.12
2018-07-27T01:48:35.427Z,67.64
2018-07-27T01:51:03.599Z,67.14
2018-07-27T01:53:30.828Z,69.33
2018-07-27T01:55:58.006Z,70.37
2018-07-27T01:58:25.237Z,68.88
2018-07-27T02:00:52.484Z,67.58
2018-07-27T02:03:19.643Z,68.21
2018-07-27T02:05:46.787Z,69.52
2018-07-27T02:08:13.880Z,71.41
2018-07-27T02:10:41.079Z,74.12
2018-07-27T02:13:08.285Z,73.29
2018-07-27T02:15:35.413Z,74.29
2018-07-27T02:18:02.613Z,72.78
2018-07-27T02:20:29.783Z,72.35
2018-07-27T02:22:56.876Z,72.25
2018-07-27T02:25:24.065Z,69.58
2018-07-27T02:27:51.206Z,69.71
2018-07-27T02:30:18.360Z,69.21
2018-07-27T02:32:45.500Z,70.26
2018-07-27T02:35:12.635Z,70.14
2018-07-27T02:37:39.750Z,69.27
2018-07-27T02:42:33.500Z,68.26
2018-07-27T02:45:00.679Z,69.68
2018-07-27T02:47:27.837Z,72.97
2018-07-27T02:49:54.908Z,73.90
2018-07-27T02:52:22.030Z,75.20
2018-07-27T02:54:49.171Z,75.61
2018-07-27T02:57:16.313Z,75.21
2018-07-27T02:59:43.745Z,75.54
2018-07-27T03:02:10.944Z,72.81
2018-07-27T03:04:38.060Z,72.39
2018-07-27T03:07:05.245Z,71.45
2018-07-27T03:09:32.481Z,74.84
2018-07-27T03:11:59.662Z,75.93
2018-07-27T03:14:26.806Z,75.66
2018-07-27T03:16:53.940Z,73.21
2018-07-27T03:19:21.044Z,73.61
2018-07-27T03:21:48.161Z,73.90
2018-07-27T03:24:15.320Z,74.01
2018-07-27T03:26:42.475Z,73.05
2018-07-27T03:29:09.625Z,73.92
2018-07-27T03:31:36.728Z,75.45
2018-07-27T03:34:03.877Z,75.49
2018-07-27T03:36:31.064Z,78.49
2018-07-27T03:38:58.217Z,78.89
2018-07-27T03:41:25.361Z,78.97
2018-07-27T03:43:52.537Z,77.25
2018-07-27T03:46:19.741Z,75.48
2018-07-27T03:48:46.900Z,74.21
2018-07-27T03:51:14.026Z,75.02
2018-07-27T03:53:41.193Z,73.70
2018-07-27T03:56:08.382Z,73.62
2018-07-27T03:58:35.517Z,74.45
2018-07-27T04:01:02.676Z,75.24
2018-07-27T04:03:29.839Z,77.14
2018-07-27T04:05:56.971Z,75.96
2018-07-27T04:08:24.413Z,74.53
2018-07-27T04:10:51.603Z,73.81
2018-07-27T04:13:18.768Z,74.75
2018-07-27T04:15:45.924Z,73.81
2018-07-27T04:18:13.072Z,74.06
2018-07-27T04:20:40.195Z,74.41
2018-07-27T04:23:07.313Z,73.58
2018-07-27T04:25:34.441Z,73.15
2018-07-27T04:28:01.580Z,72.58
2018-07-27T04:30:28.709Z,74.08
2018-07-27T04:32:55.864Z,75.44
2018-07-27T04:35:23.012Z,75.73
2018-07-27T04:37:50.212Z,74.22
2018-07-27T04:40:17.337Z,72.82
2018-07-27T04:42:44.468Z,72.77
2018-07-27T04:45:11.632Z,72.39
2018-07-27T04:47:38.864Z,72.54
2018-07-27T04:50:07.202Z,71.83
2018-07-27T04:52:34.360Z,72.29
2018-07-27T04:55:01.498Z,71.48
2018-07-27T04:57:28.636Z,72.93
2018-07-27T04:59:55.799Z,74.17
2018-07-27T05:02:22.952Z,75.48
2018-07-27T05:04:50.148Z,76.17
2018-07-27T05:07:17.352Z,75.82
2018-07-27T05:09:44.453Z,74.31
2018-07-27T05:12:11.606Z,73.96
2018-07-27T05:14:38.775Z,72.36
2018-07-27T05:17:05.912Z,71.72
2018-07-27T05:19:33.070Z,72.09
2018-07-27T05:22:00.237Z,72.74
2018-07-27T05:24:27.461Z,71.94
2018-07-27T05:26:54.608Z,72.69
2018-07-27T05:29:21.801Z,73.64
2018-07-27T05:31:49.035Z,72.20
2018-07-27T05:34:16.155Z,70.25
2018-07-27T05:36:43.319Z,68.93
2018-07-27T05:39:11.574Z,67.85
2018-07-27T05:41:38.673Z,69.18
2018-07-27T05:44:05.948Z,69.36
2018-07-27T05:46:33.096Z,69.40
2018-07-27T05:49:00.256Z,68.28
2018-07-27T05:51:27.480Z,66.96
2018-07-27T05:53:54.584Z,66.07
2018-07-27T05:56:21.772Z,66.64
2018-07-27T05:58:48.937Z,66.29
2018-07-27T06:01:16.140Z,64.45
2018-07-27T06:03:43.244Z,64.10
2018-07-27T06:06:10.414Z,64.89
2018-07-27T06:08:37.786Z,63.56
2018-07-27T06:11:04.911Z,63.99
2018-07-27T06:13:32.086Z,61.98
2018-07-27T06:15:59.224Z,60.31
2018-07-27T06:18:26.360Z,60.58
2018-07-27T06:20:53.665Z,58.21
2018-07-27T06:23:20.833Z,60.66
2018-07-27T06:25:48.020Z,59.29
2018-07-27T06:28:15.240Z,59.62
2018-07-27T06:30:42.301Z,59.10
2018-07-27T06:33:09.448Z,55.52
2018-07-27T06:35:36.568Z,55.62
2018-07-27T06:38:03.752Z,56.23
2018-07-27T06:40:30.957Z,55.75
2018-07-27T06:42:58.181Z,54.41
2018-07-27T06:45:25.349Z,56.16
2018-07-27T06:47:52.514Z,52.32
2018-07-27T06:50:19.672Z,53.46
2018-07-27T06:52:46.901Z,51.79
2018-07-27T06:55:14.270Z,50.37
2018-07-27T06:57:41.576Z,48.12
2018-07-27T07:00:08.724Z,49.82
2018-07-27T07:02:35.826Z,50.62
2018-07-27T07:05:03.962Z,49.03
2018-07-27T07:07:31.071Z,47.85
2018-07-27T07:09:58.232Z,47.49
2018-07-27T07:12:25.440Z,46.93
2018-07-27T07:14:52.597Z,46.84
2018-07-27T07:17:19.759Z,46.39
2018-07-27T07:19:46.972Z,46.25
2018-07-27T07:22:14.156Z,45.71
2018-07-27T07:24:41.336Z,45.73
2018-07-27T07:27:08.448Z,44.10
2018-07-27T07:29:35.592Z,45.08
2018-07-27T07:32:02.755Z,45.25
2018-07-27T07:34:29.879Z,43.86
2018-07-27T07:36:57.048Z,44.04
2018-07-27T07:39:24.236Z,44.81
2018-07-27T07:41:51.439Z,44.66
2018-07-27T07:44:18.539Z,43.49
2018-07-27T07:46:45.704Z,43.12
2018-07-27T07:49:12.818Z,42.91
2018-07-27T07:51:40.013Z,42.65
2018-07-27T07:54:07.184Z,42.12
2018-07-27T07:56:34.424Z,42.69
2018-07-27T07:59:01.969Z,42.77
2018-07-27T08:01:29.201Z,41.86
2018-07-27T08:03:56.493Z,42.73
2018-07-27T08:06:23.748Z,42.45
2018-07-27T08:08:50.889Z,41.66
2018-07-27T08:11:18.138Z,41.74
2018-07-27T08:13:45.244Z,41.92
2018-07-27T08:16:12.429Z,41.20
2018-07-27T08:18:39.580Z,41.16
2018-07-27T08:21:06.805Z,41.13
2018-07-27T08:23:33.946Z,39.98
2018-07-27T08:26:36.200Z,38.74
2018-07-27T08:29:03.399Z,43.17
2018-07-27T08:31:30.652Z,39.83
2018-07-27T08:33:58.625Z,39.52
2018-07-27T08:36:25.835Z,39.36
2018-07-27T08:38:53.069Z,38.38
2018-07-27T08:41:20.117Z,37.65
2018-07-27T08:43:47.340Z,39.67
2018-07-27T08:46:14.436Z,37.38
2018-07-27T08:48:41.554Z,37.72
2018-07-27T08:51:08.741Z,36.96
2018-07-27T08:53:36.092Z,36.53
2018-07-27T08:56:06.537Z,37.01
2018-07-27T08:58:33.679Z,35.63
2018-07-27T09:01:01.020Z,36.72
2018-07-27T09:03:28.325Z,39.11
2018-07-27T09:05:55.460Z,39.03
2018-07-27T09:08:22.608Z,37.95
2018-07-27T09:10:49.740Z,39.36
2018-07-27T09:13:16.877Z,41.41
2018-07-27T09:15:43.998Z,39.00
2018-07-27T09:18:11.245Z,37.88
2018-07-27T09:20:38.391Z,39.82
2018-07-27T09:23:06.545Z,38.55
2018-07-27T09:25:33.780Z,38.86
2018-07-27T09:28:00.956Z,38.95
2018-07-27T09:30:29.031Z,39.02
2018-07-27T09:32:56.206Z,39.02
2018-07-27T09:35:23.459Z,44.39
2018-07-27T09:37:50.632Z,43.21
2018-07-27T09:40:17.873Z,40.13
2018-07-27T09:42:45.019Z,40.01
2018-07-27T09:45:12.199Z,41.50
2018-07-27T09:47:39.388Z,43.43
2018-07-27T09:50:06.742Z,43.28
2018-07-27T09:52:34.161Z,43.97
2018-07-27T09:55:01.393Z,45.06
2018-07-27T09:57:28.724Z,47.19
2018-07-27T09:59:55.866Z,48.07
2018-07-27T10:02:23.016Z,47.37
2018-07-27T10:04:50.164Z,45.66
2018-07-27T10:07:17.377Z,47.55
2018-07-27T10:09:44.556Z,47.79
2018-07-27T10:12:11.708Z,46.63
2018-07-27T10:14:39.867Z,46.38
2018-07-27T10:17:07.043Z,49.61
2018-07-27T10:19:34.527Z,50.02
2018-07-27T10:22:01.795Z,50.59
2018-07-27T10:24:29.034Z,49.32
2018-07-27T10:26:56.197Z,49.42
2018-07-27T10:29:23.404Z,49.20
2018-07-27T10:31:50.647Z,47.69
2018-07-27T10:34:17.817Z,48.70
2018-07-27T10:36:45.050Z,46.79
2018-07-27T10:39:12.196Z,43.81
2018-07-27T10:41:39.354Z,44.74
2018-07-27T10:44:06.640Z,43.09
2018-07-27T10:46:33.785Z,42.60
2018-07-27T10:49:00.989Z,40.07
2018-07-27T10:51:28.182Z,39.79
2018-07-27T10:53:55.380Z,40.95
2018-07-27T10:56:22.583Z,38.61
2018-07-27T10:58:50.032Z,38.39
2018-07-27T11:01:17.179Z,37.00
2018-07-27T11:03:44.339Z,36.90
2018-07-27T11:06:11.478Z,37.71
2018-07-27T11:08:38.955Z,37.04
2018-07-27T11:11:06.187Z,36.61
2018-07-27T11:13:33.489Z,37.20
2018-07-27T11:16:00.722Z,37.42
2018-07-27T11:18:27.969Z,37.32
2018-07-27T11:20:55.204Z,36.55
2018-07-27T11:23:22.404Z,35.79
2018-07-27T11:25:49.632Z,35.48
2018-07-27T11:28:16.859Z,34.63
2018-07-27T11:30:44.074Z,32.18
2018-07-27T11:33:11.292Z,31.07
2018-07-27T11:35:38.514Z,30.76
2018-07-27T11:38:05.753Z,28.16
2018-07-27T11:40:32.956Z,28.38
2018-07-27T11:43:00.174Z,27.74
2018-07-27T11:45:27.381Z,27.69
2018-07-27T11:47:54.525Z,27.35
2018-07-27T11:50:21.692Z,27.99
2018-07-27T11:52:48.916Z,26.86
2018-07-27T11:55:16.145Z,28.31
2018-07-27T11:57:43.277Z,27.21
2018-07-27T12:00:10.506Z,29.21
2018-07-27T12:02:38.932Z,31.03
2018-07-27T12:05:06.127Z,30.75
